createdAt,value
2017-10-11T00:00:45.552Z,99.99
2017-10-11T00:01:45.544Z,99.99
2017-10-11T00:02:45.543Z,99.99
2017-10-11T00:03:45.541Z,99.99
2017-10-11T00:04:45.543Z,99.99
2017-10-11T00:05:45.559Z,99.99
2017-10-11T00:06:45.533Z,99.99
2017-10-11T00:07:45.532Z,99.99
2017-10-11T00:08:45.527Z,99.99
2017-10-11T00:09:45.529Z,99.99
2017-10-11T00:10:45.527Z,99.99
2017-10-11T00:11:45.525Z,99.99
2017-10-11T00:12:45.522Z,99.99
2017-10-11T00:13:45.519Z,99.99
2017-10-11T00:14:45.517Z,99.99
2017-10-11T00:15:45.515Z,99.99
2017-10-11T00:16:45.512Z,99.99
2017-10-11T00:17:45.508Z,99.99
2017-10-11T00:18:45.503Z,99.99
2017-10-11T00:19:45.499Z,99.99
2017-10-11T00:20:45.497Z,99.99
2017-10-11T00:21:45.501Z,99.99
2017-10-11T00:22:45.491Z,99.99
2017-10-11T00:23:45.497Z,99.99
2017-10-11T00:24:45.486Z,99.99
2017-10-11T00:25:45.489Z,99.99
2017-10-11T00:26:45.487Z,99.99
2017-10-11T00:27:45.483Z,99.99
2017-10-11T00:28:45.482Z,99.99
2017-10-11T00:29:45.474Z,99.99
2017-10-11T00:30:45.471Z,99.99
2017-10-11T00:31:45.469Z,99.99
2017-10-11T00:32:45.466Z,99.99
2017-10-11T00:33:45.467Z,99.99
2017-10-11T00:34:45.465Z,99.99
2017-10-11T00:35:45.463Z,99.99
2017-10-11T00:36:45.461Z,99.99
2017-10-11T00:37:45.457Z,99.99
2017-10-11T00:38:45.458Z,99.99
2017-10-11T00:39:45.453Z,99.99
2017-10-11T00:40:45.450Z,99.99
2017-10-11T00:41:45.442Z,99.99
2017-10-11T00:42:45.439Z,99.99
2017-10-11T00:43:45.438Z,99.99
2017-10-11T00:44:45.436Z,99.99
2017-10-11T00:45:45.432Z,99.99
2017-10-11T00:46:45.438Z,99.99
2017-10-11T00:47:45.443Z,99.99
2017-10-11T00:48:45.425Z,99.99
2017-10-11T00:49:45.427Z,99.99
2017-10-11T00:50:45.424Z,99.99
2017-10-11T00:51:45.423Z,99.99
2017-10-11T00:52:45.423Z,99.99
2017-10-11T00:53:45.416Z,99.99
2017-10-11T00:54:45.413Z,99.99
2017-10-11T00:55:45.417Z,99.99
2017-10-11T00:56:45.409Z,99.99
2017-10-11T00:57:45.403Z,99.99
2017-10-11T00:58:45.400Z,99.99
2017-10-11T00:59:45.404Z,99.99
2017-10-11T01:00:45.393Z,99.99
2017-10-11T01:01:45.392Z,99.99
2017-10-11T01:02:45.389Z,99.99
2017-10-11T01:03:45.388Z,99.99
2017-10-11T01:04:45.385Z,99.99
2017-10-11T01:05:45.386Z,99.99
2017-10-11T01:06:45.384Z,99.99
2017-10-11T01:07:45.382Z,99.99
2017-10-11T01:08:45.378Z,99.99
2017-10-11T01:09:45.376Z,99.99
2017-10-11T01:10:45.375Z,99.99
2017-10-11T01:11:45.372Z,99.99
2017-10-11T01:12:45.369Z,99.99
2017-10-11T01:13:45.363Z,99.99
2017-10-11T01:14:45.359Z,99.99
2017-10-11T01:15:45.357Z,99.99
2017-10-11T01:16:45.355Z,99.99
2017-10-11T01:17:45.353Z,99.99
2017-10-11T01:18:45.349Z,99.91
2017-10-11T01:19:45.349Z,99.99
2017-10-11T01:20:45.343Z,99.99
2017-10-11T01:21:45.348Z,99.99
2017-10-11T01:22:45.343Z,99.99
2017-10-11T01:23:45.342Z,99.99
2017-10-11T01:24:45.339Z,99.99
2017-10-11T01:25:45.336Z,99.99
2017-10-11T01:26:45.335Z,99.99
2017-10-11T01:27:45.332Z,99.99
2017-10-11T01:28:45.327Z,99.99
2017-10-11T01:29:45.322Z,99.99
2017-10-11T01:30:45.320Z,99.81
2017-10-11T01:31:45.318Z,99.99
2017-10-11T01:32:45.313Z,99.99
2017-10-11T01:33:45.311Z,99.99
2017-10-11T01:34:45.309Z,99.99
2017-10-11T01:35:45.307Z,99.99
2017-10-11T01:36:45.304Z,99.99
2017-10-11T01:37:45.305Z,99.81
2017-10-11T01:38:45.304Z,99.81
2017-10-11T01:39:45.301Z,99.99
2017-10-11T01:40:45.298Z,99.91
2017-10-11T01:41:45.297Z,99.62
2017-10-11T01:42:45.292Z,99.99
2017-10-11T01:43:45.291Z,99.99
2017-10-11T01:44:45.288Z,99.81
2017-10-11T01:45:45.281Z,99.72
2017-10-11T01:46:45.279Z,99.99
2017-10-11T01:47:45.277Z,99.99
2017-10-11T01:48:45.274Z,99.99
2017-10-11T01:49:45.271Z,99.99
2017-10-11T01:50:45.269Z,99.99
2017-10-11T01:51:45.265Z,99.99
2017-10-11T01:52:45.263Z,99.99
2017-10-11T01:53:45.266Z,99.99
2017-10-11T01:54:45.266Z,99.99
2017-10-11T01:55:45.260Z,99.99
2017-10-11T01:56:45.256Z,99.99
2017-10-11T01:57:45.254Z,99.91
2017-10-11T01:58:45.254Z,99.99
2017-10-11T01:59:45.250Z,99.99
2017-10-11T02:00:45.247Z,99.99
2017-10-11T02:01:45.240Z,99.99
2017-10-11T02:02:45.237Z,99.99
2017-10-11T02:03:45.236Z,99.99
2017-10-11T02:04:45.231Z,99.99
2017-10-11T02:05:45.231Z,99.99
2017-10-11T02:06:45.228Z,99.99
2017-10-11T02:07:45.225Z,99.91
2017-10-11T02:08:45.229Z,99.99
2017-10-11T02:09:45.224Z,99.99
2017-10-11T02:10:45.221Z,99.99
2017-10-11T02:11:45.218Z,99.52
2017-10-11T02:12:45.214Z,99.99
2017-10-11T02:13:45.214Z,99.72
2017-10-11T02:14:45.211Z,99.99
2017-10-11T02:15:45.208Z,99.99
2017-10-11T02:16:45.205Z,99.99
2017-10-11T02:17:45.198Z,99.99
2017-10-11T02:18:45.199Z,99.91
2017-10-11T02:19:45.193Z,99.91
2017-10-11T02:20:45.191Z,99.72
2017-10-11T02:21:45.188Z,99.81
2017-10-11T02:22:45.184Z,99.99
2017-10-11T02:23:45.183Z,99.91
2017-10-11T02:24:45.179Z,99.99
2017-10-11T02:25:45.182Z,99.99
2017-10-11T02:26:45.178Z,99.99
2017-10-11T02:27:45.190Z,99.99
2017-10-11T02:28:45.174Z,99.99
2017-10-11T02:29:45.171Z,99.99
2017-10-11T02:30:45.167Z,99.76
2017-10-11T02:31:45.165Z,99.99
2017-10-11T02:32:45.161Z,99.76
2017-10-11T02:33:45.154Z,99.99
2017-10-11T02:34:45.153Z,99.86
2017-10-11T02:35:45.149Z,99.99
2017-10-11T02:36:45.147Z,99.99
2017-10-11T02:37:45.150Z,99.99
2017-10-11T02:38:45.146Z,99.99
2017-10-11T02:39:45.143Z,99.99
2017-10-11T02:40:45.140Z,99.99
2017-10-11T02:41:45.134Z,99.99
2017-10-11T02:42:45.130Z,99.99
2017-10-11T02:43:45.129Z,99.99
2017-10-11T02:44:45.126Z,99.99
2017-10-11T02:45:45.123Z,99.99
2017-10-11T02:46:45.119Z,99.99
2017-10-11T02:47:45.117Z,99.99
2017-10-11T02:48:45.115Z,99.99
2017-10-11T02:49:45.115Z,99.99
2017-10-11T02:50:45.114Z,99.99
2017-10-11T02:51:45.111Z,99.99
2017-10-11T02:52:45.110Z,99.86
2017-10-11T02:53:45.105Z,99.99
2017-10-11T02:54:45.109Z,99.99
2017-10-11T02:55:45.100Z,99.76
2017-10-11T02:56:45.097Z,99.57
2017-10-11T02:57:45.090Z,99.57
2017-10-11T02:58:45.087Z,99.96
2017-10-11T02:59:45.085Z,99.96
2017-10-11T03:00:45.081Z,99.99
2017-10-11T03:01:45.079Z,99.96
2017-10-11T03:02:45.077Z,99.57
2017-10-11T03:03:45.075Z,99.76
2017-10-11T03:04:45.075Z,99.96
2017-10-11T03:05:45.073Z,99.99
2017-10-11T03:06:45.070Z,99.99
2017-10-11T03:07:45.068Z,99.99
2017-10-11T03:08:45.064Z,99.99
2017-10-11T03:09:45.061Z,99.86
2017-10-11T03:10:45.060Z,99.96
2017-10-11T03:11:45.058Z,99.76
2017-10-11T03:12:45.054Z,99.99
2017-10-11T03:13:45.048Z,99.99
2017-10-11T03:14:45.049Z,99.76
2017-10-11T03:15:45.042Z,99.76
2017-10-11T03:16:45.038Z,99.96
2017-10-11T03:17:45.036Z,99.99
2017-10-11T03:18:45.033Z,99.99
2017-10-11T03:19:45.030Z,99.76
2017-10-11T03:20:45.026Z,99.99
2017-10-11T03:21:45.029Z,99.99
2017-10-11T03:22:45.025Z,99.99
2017-10-11T03:23:45.023Z,99.96
2017-10-11T03:24:45.023Z,99.86
2017-10-11T03:25:45.018Z,99.67
2017-10-11T03:26:45.015Z,99.86
2017-10-11T03:27:45.014Z,99.67
2017-10-11T03:28:45.010Z,99.76
2017-10-11T03:29:45.001Z,99.99
2017-10-11T03:30:45.001Z,99.48
2017-10-11T03:31:45.002Z,99.48
2017-10-11T03:32:44.993Z,99.10
2017-10-11T03:33:44.991Z,99.38
2017-10-11T03:34:44.989Z,99.57
2017-10-11T03:35:44.987Z,99.00
2017-10-11T03:36:44.982Z,99.48
2017-10-11T03:37:44.985Z,98.90
2017-10-11T03:38:44.982Z,98.81
2017-10-11T03:39:44.979Z,98.61
2017-10-11T03:40:44.976Z,98.61
2017-10-11T03:41:44.970Z,98.52
2017-10-11T03:42:44.966Z,98.81
2017-10-11T03:43:44.963Z,98.71
2017-10-11T03:44:44.960Z,98.61
2017-10-11T03:45:44.962Z,98.71
2017-10-11T03:46:44.958Z,98.81
2017-10-11T03:47:44.961Z,99.29
2017-10-11T03:48:44.953Z,98.90
2017-10-11T03:49:44.950Z,99.00
2017-10-11T03:50:44.947Z,99.00
2017-10-11T03:51:44.944Z,99.29
2017-10-11T03:52:44.941Z,98.81
2017-10-11T03:53:44.935Z,98.81
2017-10-11T03:54:44.932Z,98.90
2017-10-11T03:55:44.930Z,98.81
2017-10-11T03:56:44.925Z,98.90
2017-10-11T03:57:44.923Z,98.90
2017-10-11T03:58:44.921Z,99.38
2017-10-11T03:59:44.919Z,99.29
2017-10-11T04:00:44.914Z,98.71
2017-10-11T04:01:44.915Z,98.81
2017-10-11T04:02:44.914Z,98.52
2017-10-11T04:03:44.911Z,98.81
2017-10-11T04:04:44.906Z,98.52
2017-10-11T04:05:44.903Z,99.10
2017-10-11T04:06:44.902Z,98.61
2017-10-11T04:07:44.898Z,98.61
2017-10-11T04:08:44.895Z,98.71
2017-10-11T04:09:44.887Z,99.38
2017-10-11T04:10:44.887Z,99.38
2017-10-11T04:11:44.883Z,98.43
2017-10-11T04:12:44.881Z,98.81
2017-10-11T04:13:44.877Z,98.81
2017-10-11T04:14:44.873Z,98.81
2017-10-11T04:15:44.873Z,98.61
2017-10-11T04:16:44.868Z,98.71
2017-10-11T04:17:44.870Z,98.38
2017-10-11T04:18:44.866Z,98.52
2017-10-11T04:19:44.865Z,98.61
2017-10-11T04:20:44.861Z,98.76
2017-10-11T04:21:44.859Z,98.71
2017-10-11T04:22:44.856Z,98.71
2017-10-11T04:23:44.859Z,98.52
2017-10-11T04:24:44.851Z,98.71
2017-10-11T04:25:44.843Z,98.33
2017-10-11T04:26:44.841Z,98.61
2017-10-11T04:27:44.837Z,98.61
2017-10-11T04:28:44.834Z,98.33
2017-10-11T04:29:44.832Z,98.38
2017-10-11T04:30:44.829Z,98.71
2017-10-11T04:31:44.826Z,98.61
2017-10-11T04:32:44.823Z,98.71
2017-10-11T04:33:44.824Z,98.52
2017-10-11T04:34:44.821Z,98.52
2017-10-11T04:35:44.823Z,98.57
2017-10-11T04:36:44.816Z,98.33
2017-10-11T04:37:44.818Z,98.66
2017-10-11T04:38:44.810Z,98.38
2017-10-11T04:39:44.809Z,98.57
2017-10-11T04:40:44.804Z,98.57
2017-10-11T04:41:44.797Z,98.19
2017-10-11T04:42:44.794Z,97.90
2017-10-11T04:43:44.792Z,98.57
2017-10-11T04:44:44.791Z,98.86
2017-10-11T04:45:44.790Z,98.86
2017-10-11T04:46:44.787Z,98.57
2017-10-11T04:47:44.785Z,98.57
2017-10-11T04:48:44.782Z,98.76
2017-10-11T04:49:44.775Z,98.57
2017-10-11T04:50:44.772Z,98.66
2017-10-11T04:51:44.770Z,98.66
2017-10-11T04:52:44.768Z,98.66
2017-10-11T04:53:44.762Z,98.57
2017-10-11T04:54:44.761Z,98.66
2017-10-11T04:55:44.758Z,98.38
2017-10-11T04:56:44.755Z,98.38
2017-10-11T04:57:44.755Z,99.05
2017-10-11T04:58:44.756Z,99.15
2017-10-11T04:59:44.752Z,98.76
2017-10-11T05:00:44.748Z,98.76
2017-10-11T05:01:44.745Z,98.47
2017-10-11T05:02:44.743Z,99.15
2017-10-11T05:03:44.739Z,98.95
2017-10-11T05:04:44.737Z,98.86
2017-10-11T05:05:44.731Z,98.19
2017-10-11T05:06:44.728Z,98.38
2017-10-11T05:07:44.725Z,98.57
2017-10-11T05:08:44.723Z,98.66
2017-10-11T05:09:44.720Z,98.57
2017-10-11T05:10:44.717Z,98.57
2017-10-11T05:11:44.714Z,98.66
2017-10-11T05:12:44.710Z,98.38
2017-10-11T05:13:44.712Z,98.76
2017-10-11T05:14:44.710Z,98.66
2017-10-11T05:15:44.706Z,98.47
2017-10-11T05:16:44.703Z,98.47
2017-10-11T05:17:44.700Z,98.57
2017-10-11T05:18:44.698Z,98.38
2017-10-11T05:19:44.698Z,98.47
2017-10-11T05:20:44.693Z,98.47
2017-10-11T05:21:44.685Z,98.95
2017-10-11T05:22:44.683Z,99.05
2017-10-11T05:23:44.681Z,98.76
2017-10-11T05:24:44.677Z,98.95
2017-10-11T05:25:44.676Z,98.76
2017-10-11T05:26:44.671Z,99.15
2017-10-11T05:27:44.669Z,99.15
2017-10-11T05:28:44.666Z,99.43
2017-10-11T05:29:44.668Z,99.52
2017-10-11T05:30:44.666Z,99.33
2017-10-11T05:31:44.662Z,99.33
2017-10-11T05:32:44.659Z,99.43
2017-10-11T05:33:44.655Z,98.95
2017-10-11T05:34:44.654Z,99.43
2017-10-11T05:35:44.652Z,99.33
2017-10-11T05:36:44.649Z,99.33
2017-10-11T05:37:44.641Z,99.43
2017-10-11T05:38:44.638Z,99.52
2017-10-11T05:39:44.637Z,99.33
2017-10-11T05:40:44.633Z,99.33
2017-10-11T05:41:44.629Z,99.15
2017-10-11T05:42:44.628Z,99.24
2017-10-11T05:43:44.625Z,99.43
2017-10-11T05:44:44.623Z,99.43
2017-10-11T05:45:44.624Z,99.24
2017-10-11T05:46:44.621Z,99.15
2017-10-11T05:47:44.619Z,99.05
2017-10-11T05:48:44.616Z,98.57
2017-10-11T05:49:44.608Z,99.05
2017-10-11T05:50:44.606Z,99.15
2017-10-11T05:51:44.603Z,99.05
2017-10-11T05:52:44.603Z,98.47
2017-10-11T05:53:44.601Z,98.66
2017-10-11T05:54:44.602Z,99.05
2017-10-11T05:55:44.597Z,99.15
2017-10-11T05:56:44.593Z,99.15
2017-10-11T05:57:44.590Z,98.95
2017-10-11T05:58:44.589Z,99.15
2017-10-11T05:59:44.585Z,99.05
2017-10-11T06:00:44.583Z,98.66
2017-10-11T06:01:44.576Z,98.86
2017-10-11T06:02:44.573Z,99.15
2017-10-11T06:03:44.571Z,98.47
2017-10-11T06:04:44.567Z,98.76
2017-10-11T06:05:44.565Z,98.47
2017-10-11T06:06:44.568Z,98.38
2017-10-11T06:07:44.559Z,99.05
2017-10-11T06:08:44.556Z,98.38
2017-10-11T06:09:44.559Z,98.38
2017-10-11T06:10:44.557Z,98.19
2017-10-11T06:11:44.552Z,98.57
2017-10-11T06:12:44.548Z,98.24
2017-10-11T06:13:44.546Z,98.76
2017-10-11T06:14:44.545Z,98.47
2017-10-11T06:15:44.543Z,98.57
2017-10-11T06:16:44.538Z,98.76
2017-10-11T06:17:44.532Z,98.66
2017-10-11T06:18:44.529Z,98.38
2017-10-11T06:19:44.527Z,98.76
2017-10-11T06:20:44.525Z,98.57
2017-10-11T06:21:44.522Z,98.66
2017-10-11T06:22:44.519Z,98.57
2017-10-11T06:23:44.516Z,98.76
2017-10-11T06:24:44.512Z,98.76
2017-10-11T06:25:44.515Z,98.86
2017-10-11T06:26:44.513Z,98.71
2017-10-11T06:27:44.510Z,97.85
2017-10-11T06:28:44.507Z,98.09
2017-10-11T06:29:44.504Z,98.38
2017-10-11T06:30:44.502Z,97.80
2017-10-11T06:31:44.498Z,97.47
2017-10-11T06:32:44.497Z,98.05
2017-10-11T06:33:44.488Z,97.66
2017-10-11T06:34:44.486Z,97.56
2017-10-11T06:35:44.484Z,97.56
2017-10-11T06:36:44.483Z,97.85
2017-10-11T06:37:44.478Z,97.47
2017-10-11T06:38:44.477Z,97.09
2017-10-11T06:39:44.475Z,96.99
2017-10-11T06:40:44.472Z,96.70
2017-10-11T06:41:44.474Z,96.80
2017-10-11T06:42:44.470Z,96.47
2017-10-11T06:43:44.471Z,96.70
2017-10-11T06:44:44.473Z,96.89
2017-10-11T06:45:44.464Z,97.47
2017-10-11T06:46:44.462Z,96.61
2017-10-11T06:47:44.459Z,96.99
2017-10-11T06:48:44.456Z,97.09
2017-10-11T06:49:44.450Z,97.18
2017-10-11T06:50:44.446Z,96.13
2017-10-11T06:51:44.446Z,96.13
2017-10-11T06:52:44.442Z,96.03
2017-10-11T06:53:44.444Z,96.32
2017-10-11T06:54:44.443Z,96.51
2017-10-11T06:55:44.439Z,96.61
2017-10-11T06:56:44.436Z,96.51
2017-10-11T06:57:44.431Z,96.61
2017-10-11T06:58:44.427Z,96.03
2017-10-11T06:59:44.424Z,96.22
2017-10-11T07:00:44.422Z,95.94
2017-10-11T07:01:44.420Z,95.84
2017-10-11T07:02:44.418Z,96.13
2017-10-11T07:03:44.415Z,95.75
2017-10-11T07:04:44.413Z,96.03
2017-10-11T07:05:44.415Z,96.42
2017-10-11T07:06:44.412Z,96.70
2017-10-11T07:07:44.416Z,96.61
2017-10-11T07:08:44.407Z,96.03
2017-10-11T07:09:44.405Z,96.42
2017-10-11T07:10:44.404Z,96.42
2017-10-11T07:11:44.400Z,96.22
2017-10-11T07:12:44.398Z,96.03
2017-10-11T07:13:44.392Z,95.36
2017-10-11T07:14:44.390Z,95.36
2017-10-11T07:15:44.387Z,95.51
2017-10-11T07:16:44.385Z,95.60
2017-10-11T07:17:44.381Z,95.79
2017-10-11T07:18:44.379Z,95.51
2017-10-11T07:19:44.380Z,95.60
2017-10-11T07:20:44.380Z,94.93
2017-10-11T07:21:44.380Z,94.26
2017-10-11T07:22:44.380Z,93.88
2017-10-11T07:23:44.382Z,93.93
2017-10-11T07:24:44.372Z,94.21
2017-10-11T07:25:44.371Z,93.44
2017-10-11T07:26:44.368Z,93.26
2017-10-11T07:27:44.366Z,92.97
2017-10-11T07:28:44.364Z,92.87
2017-10-11T07:29:44.359Z,92.87
2017-10-11T07:30:44.357Z,92.68
2017-10-11T07:31:44.355Z,92.68
2017-10-11T07:32:44.353Z,92.77
2017-10-11T07:33:44.352Z,92.58
2017-10-11T07:34:44.350Z,92.49
2017-10-11T07:35:44.350Z,92.01
2017-10-11T07:36:44.345Z,92.58
2017-10-11T07:37:44.350Z,92.97
2017-10-11T07:38:44.346Z,92.30
2017-10-11T07:39:44.345Z,91.91
2017-10-11T07:40:44.344Z,92.20
2017-10-11T07:41:44.344Z,92.30
2017-10-11T07:42:44.342Z,92.20
2017-10-11T07:43:44.341Z,92.20
2017-10-11T07:44:44.339Z,92.49
2017-10-11T07:45:44.335Z,92.87
2017-10-11T07:46:44.332Z,92.39
2017-10-11T07:47:44.330Z,92.97
2017-10-11T07:48:44.334Z,92.58
2017-10-11T07:49:44.327Z,92.10
2017-10-11T07:50:44.327Z,91.63
2017-10-11T07:51:44.330Z,91.24
2017-10-11T07:52:44.323Z,91.53
2017-10-11T07:53:44.325Z,90.33
2017-10-11T07:54:44.324Z,90.33
2017-10-11T07:55:44.324Z,89.94
2017-10-11T07:56:44.322Z,89.27
2017-10-11T07:57:44.316Z,88.74
2017-10-11T07:58:44.315Z,87.98
2017-10-11T07:59:44.315Z,88.17
2017-10-11T08:00:44.312Z,88.26
2017-10-11T08:01:44.317Z,87.49
2017-10-11T08:02:44.315Z,87.49
2017-10-11T08:03:44.313Z,86.92
2017-10-11T08:04:44.313Z,87.30
2017-10-11T08:05:44.313Z,87.40
2017-10-11T08:06:44.313Z,87.78
2017-10-11T08:07:44.311Z,88.22
2017-10-11T08:08:44.310Z,87.78
2017-10-11T08:09:44.310Z,88.12
2017-10-11T08:10:44.305Z,88.89
2017-10-11T08:11:44.304Z,87.93
2017-10-11T08:12:44.304Z,89.08
2017-10-11T08:13:44.302Z,88.70
2017-10-11T08:14:44.302Z,89.47
2017-10-11T08:15:44.302Z,89.56
2017-10-11T08:16:44.301Z,89.85
2017-10-11T08:17:44.304Z,89.80
2017-10-11T08:18:44.303Z,89.80
2017-10-11T08:19:44.303Z,90.28
2017-10-11T08:20:44.302Z,89.85
2017-10-11T08:21:44.300Z,89.90
2017-10-11T08:22:44.300Z,89.80
2017-10-11T08:23:44.299Z,90.28
2017-10-11T08:24:44.298Z,90.23
2017-10-11T08:25:44.293Z,90.67
2017-10-11T08:26:44.292Z,90.52
2017-10-11T08:27:44.295Z,90.42
2017-10-11T08:28:44.288Z,89.94
2017-10-11T08:29:44.295Z,90.23
2017-10-11T08:30:44.292Z,90.52
2017-10-11T08:31:44.287Z,90.42
2017-10-11T08:32:44.285Z,90.23
2017-10-11T08:33:44.288Z,89.56
2017-10-11T08:34:44.287Z,89.47
2017-10-11T08:35:44.288Z,89.08
2017-10-11T08:36:44.285Z,88.79
2017-10-11T08:37:44.285Z,89.08
2017-10-11T08:38:44.284Z,88.89
2017-10-11T08:39:44.284Z,89.08
2017-10-11T08:40:44.282Z,89.08
2017-10-11T08:41:44.278Z,88.89
2017-10-11T08:42:44.277Z,88.79
2017-10-11T08:43:44.277Z,89.27
2017-10-11T08:44:44.275Z,88.41
2017-10-11T08:45:44.275Z,89.32
2017-10-11T08:46:44.274Z,89.32
2017-10-11T08:47:44.274Z,88.45
2017-10-11T08:48:44.275Z,88.45
2017-10-11T08:49:44.274Z,87.74
2017-10-11T08:50:44.275Z,88.79
2017-10-11T08:51:44.289Z,88.60
2017-10-11T08:52:44.275Z,88.22
2017-10-11T08:53:44.273Z,88.89
2017-10-11T08:54:44.273Z,88.74
2017-10-11T08:55:44.272Z,88.45
2017-10-11T08:56:44.271Z,88.17
2017-10-11T08:57:44.267Z,87.93
2017-10-11T08:58:44.290Z,88.65
2017-10-11T08:59:44.265Z,89.32
2017-10-11T09:00:44.264Z,88.17
2017-10-11T09:01:44.268Z,88.26
2017-10-11T09:02:44.268Z,87.88
2017-10-11T09:03:44.267Z,88.45
2017-10-11T09:04:44.271Z,88.07
2017-10-11T09:05:44.261Z,87.88
2017-10-11T09:06:44.262Z,87.98
2017-10-11T09:07:44.290Z,88.17
2017-10-11T09:08:44.259Z,87.78
2017-10-11T09:09:44.258Z,88.07
2017-10-11T09:10:44.258Z,88.02
2017-10-11T09:11:44.259Z,88.12
2017-10-11T09:12:44.261Z,87.98
2017-10-11T09:13:44.261Z,88.02
2017-10-11T09:14:44.259Z,87.68
2017-10-11T09:15:44.260Z,88.89
2017-10-11T09:16:44.258Z,88.31
2017-10-11T09:17:44.260Z,88.02
2017-10-11T09:18:44.258Z,88.12
2017-10-11T09:19:44.258Z,87.93
2017-10-11T09:20:44.256Z,88.12
2017-10-11T09:21:44.251Z,87.93
2017-10-11T09:22:44.251Z,88.22
2017-10-11T09:23:44.250Z,88.22
2017-10-11T09:24:44.249Z,88.22
2017-10-11T09:25:44.251Z,87.74
2017-10-11T09:26:44.248Z,87.93
2017-10-11T09:27:44.246Z,88.31
2017-10-11T09:28:44.246Z,88.12
2017-10-11T09:29:44.249Z,88.41
2017-10-11T09:30:44.249Z,87.93
2017-10-11T09:31:44.248Z,87.45
2017-10-11T09:32:44.247Z,88.02
2017-10-11T09:33:44.245Z,87.64
2017-10-11T09:34:44.244Z,87.84
2017-10-11T09:35:44.243Z,88.02
2017-10-11T09:36:44.242Z,87.26
2017-10-11T09:37:44.237Z,87.35
2017-10-11T09:38:44.239Z,87.26
2017-10-11T09:39:44.236Z,87.93
2017-10-11T09:40:44.233Z,87.74
2017-10-11T09:41:44.241Z,87.45
2017-10-11T09:42:44.233Z,87.35
2017-10-11T09:43:44.232Z,87.84
2017-10-11T09:44:44.231Z,87.07
2017-10-11T09:45:44.234Z,87.07
2017-10-11T09:46:44.232Z,86.88
2017-10-11T09:47:44.233Z,87.07
2017-10-11T09:48:44.230Z,87.35
2017-10-11T09:49:44.229Z,87.35
2017-10-11T09:50:44.229Z,87.16
2017-10-11T09:51:44.233Z,87.07
2017-10-11T09:52:44.226Z,87.26
2017-10-11T09:53:44.220Z,87.07
2017-10-11T09:54:44.221Z,88.51
2017-10-11T09:55:44.220Z,87.93
2017-10-11T09:56:44.219Z,87.74
2017-10-11T09:57:44.220Z,88.12
2017-10-11T09:58:44.216Z,87.55
2017-10-11T09:59:44.216Z,87.16
2017-10-11T10:00:44.214Z,87.84
2017-10-11T10:01:44.217Z,87.64
2017-10-11T10:02:44.216Z,88.41
2017-10-11T10:03:44.215Z,87.93
2017-10-11T10:04:44.214Z,87.74
2017-10-11T10:05:44.212Z,88.22
2017-10-11T10:06:44.211Z,87.45
2017-10-11T10:07:44.225Z,87.93
2017-10-11T10:08:44.208Z,87.35
2017-10-11T10:09:44.204Z,87.84
2017-10-11T10:10:44.203Z,87.26
2017-10-11T10:11:44.201Z,87.93
2017-10-11T10:12:44.199Z,87.45
2017-10-11T10:13:44.198Z,86.97
2017-10-11T10:14:44.196Z,87.11
2017-10-11T10:15:44.197Z,87.16
2017-10-11T10:16:44.195Z,87.16
2017-10-11T10:17:44.199Z,86.78
2017-10-11T10:18:44.197Z,86.49
2017-10-11T10:19:44.197Z,86.58
2017-10-11T10:20:44.195Z,86.97
2017-10-11T10:21:44.195Z,87.16
2017-10-11T10:22:44.193Z,87.55
2017-10-11T10:23:44.191Z,88.12
2017-10-11T10:24:44.189Z,87.45
2017-10-11T10:25:44.186Z,87.74
2017-10-11T10:26:44.185Z,88.22
2017-10-11T10:27:44.184Z,87.93
2017-10-11T10:28:44.181Z,88.02
2017-10-11T10:29:44.181Z,87.84
2017-10-11T10:30:44.181Z,87.55
2017-10-11T10:31:44.180Z,87.55
2017-10-11T10:32:44.177Z,87.55
2017-10-11T10:33:44.181Z,87.45
2017-10-11T10:34:44.179Z,87.45
2017-10-11T10:35:44.181Z,87.26
2017-10-11T10:36:44.178Z,87.16
2017-10-11T10:37:44.177Z,87.55
2017-10-11T10:38:44.176Z,87.55
2017-10-11T10:39:44.174Z,87.74
2017-10-11T10:40:44.174Z,87.35
2017-10-11T10:41:44.170Z,87.35
2017-10-11T10:42:44.167Z,87.74
2017-10-11T10:43:44.178Z,87.26
2017-10-11T10:44:44.190Z,87.07
2017-10-11T10:45:44.164Z,87.16
2017-10-11T10:46:44.165Z,86.97
2017-10-11T10:47:44.162Z,87.35
2017-10-11T10:48:44.161Z,87.26
2017-10-11T10:49:44.163Z,87.84
2017-10-11T10:50:44.163Z,87.55
2017-10-11T10:51:44.163Z,87.55
2017-10-11T10:52:44.160Z,87.35
2017-10-11T10:53:44.161Z,87.26
2017-10-11T10:54:44.160Z,87.45
2017-10-11T10:55:44.192Z,88.02
2017-10-11T10:56:44.165Z,88.02
2017-10-11T10:57:44.152Z,88.31
2017-10-11T10:58:44.150Z,87.45
2017-10-11T10:59:44.150Z,87.55
2017-10-11T11:00:44.149Z,87.55
2017-10-11T11:01:44.147Z,87.55
2017-10-11T11:02:44.177Z,87.55
2017-10-11T11:03:44.160Z,87.45
2017-10-11T11:04:44.156Z,87.64
2017-10-11T11:05:44.147Z,87.35
2017-10-11T11:06:44.147Z,86.97
2017-10-11T11:07:44.146Z,87.07
2017-10-11T11:08:44.144Z,86.97
2017-10-11T11:09:44.139Z,86.97
2017-10-11T11:10:44.139Z,86.49
2017-10-11T11:11:44.138Z,86.88
2017-10-11T11:12:44.135Z,86.40
2017-10-11T11:13:44.140Z,86.78
2017-10-11T11:14:44.139Z,87.26
2017-10-11T11:15:44.144Z,87.16
2017-10-11T11:16:44.137Z,86.78
2017-10-11T11:17:44.135Z,87.01
2017-10-11T11:18:44.135Z,86.49
2017-10-11T11:19:44.134Z,86.40
2017-10-11T11:20:44.133Z,86.21
2017-10-11T11:21:44.127Z,86.49
2017-10-11T11:22:44.127Z,86.11
2017-10-11T11:23:44.126Z,86.11
2017-10-11T11:24:44.136Z,86.40
2017-10-11T11:25:44.127Z,86.40
2017-10-11T11:26:44.121Z,86.30
2017-10-11T11:27:44.120Z,86.49
2017-10-11T11:28:44.119Z,86.58
2017-10-11T11:29:44.123Z,86.78
2017-10-11T11:30:44.123Z,86.49
2017-10-11T11:31:44.126Z,86.40
2017-10-11T11:32:44.124Z,86.49
2017-10-11T11:33:44.118Z,86.21
2017-10-11T11:34:44.168Z,86.40
2017-10-11T11:35:44.118Z,86.21
2017-10-11T11:36:44.118Z,86.01
2017-10-11T11:37:44.110Z,85.82
2017-10-11T11:38:44.110Z,86.58
2017-10-11T11:39:44.109Z,86.01
2017-10-11T11:40:44.107Z,86.01
2017-10-11T11:41:44.111Z,85.82
2017-10-11T11:42:44.109Z,85.72
2017-10-11T11:43:44.105Z,86.01
2017-10-11T11:44:44.103Z,86.58
2017-10-11T11:45:44.104Z,85.92
2017-10-11T11:46:44.104Z,86.11
2017-10-11T11:47:44.108Z,86.01
2017-10-11T11:48:44.102Z,85.72
2017-10-11T11:49:44.102Z,86.11
2017-10-11T11:50:44.101Z,86.21
2017-10-11T11:51:44.100Z,86.78
2017-10-11T11:52:44.098Z,86.40
2017-10-11T11:53:44.092Z,86.78
2017-10-11T11:54:44.098Z,86.07
2017-10-11T11:55:44.091Z,86.88
2017-10-11T11:56:44.092Z,86.78
2017-10-11T11:57:44.088Z,86.40
2017-10-11T11:58:44.087Z,86.45
2017-10-11T11:59:44.085Z,86.45
2017-10-11T12:00:44.083Z,86.74
2017-10-11T12:01:44.087Z,86.25
2017-10-11T12:02:44.087Z,86.74
2017-10-11T12:03:44.085Z,86.97
2017-10-11T12:04:44.082Z,87.07
2017-10-11T12:05:44.083Z,86.97
2017-10-11T12:06:44.080Z,87.07
2017-10-11T12:07:44.080Z,86.78
2017-10-11T12:08:44.078Z,87.02
2017-10-11T12:09:44.075Z,86.68
2017-10-11T12:10:44.072Z,86.40
2017-10-11T12:11:44.071Z,86.25
2017-10-11T12:12:44.069Z,86.30
2017-10-11T12:13:44.072Z,86.49
2017-10-11T12:14:44.071Z,86.40
2017-10-11T12:15:44.069Z,86.40
2017-10-11T12:16:44.067Z,86.11
2017-10-11T12:17:44.063Z,86.11
2017-10-11T12:18:44.062Z,86.40
2017-10-11T12:19:44.065Z,86.40
2017-10-11T12:20:44.059Z,86.97
2017-10-11T12:21:44.058Z,86.58
2017-10-11T12:22:44.058Z,86.30
2017-10-11T12:23:44.059Z,86.58
2017-10-11T12:24:44.054Z,85.92
2017-10-11T12:25:44.056Z,86.68
2017-10-11T12:26:44.056Z,86.21
2017-10-11T12:27:44.059Z,87.45
2017-10-11T12:28:44.054Z,86.58
2017-10-11T12:29:44.053Z,86.97
2017-10-11T12:30:44.050Z,86.40
2017-10-11T12:31:44.051Z,85.82
2017-10-11T12:32:44.048Z,85.92
2017-10-11T12:33:44.043Z,86.01
2017-10-11T12:34:44.042Z,85.88
2017-10-11T12:35:44.041Z,85.25
2017-10-11T12:36:44.040Z,85.97
2017-10-11T12:37:44.037Z,85.68
2017-10-11T12:38:44.037Z,86.25
2017-10-11T12:39:44.036Z,86.25
2017-10-11T12:40:44.035Z,85.88
2017-10-11T12:41:44.037Z,85.97
2017-10-11T12:42:44.035Z,85.78
2017-10-11T12:43:44.034Z,85.88
2017-10-11T12:44:44.035Z,86.35
2017-10-11T12:45:44.031Z,86.25
2017-10-11T12:46:44.030Z,86.45
2017-10-11T12:47:44.029Z,86.74
2017-10-11T12:48:44.028Z,86.93
2017-10-11T12:49:44.020Z,86.35
2017-10-11T12:50:44.020Z,86.93
2017-10-11T12:51:44.019Z,87.02
2017-10-11T12:52:44.017Z,87.50